sensor_id;sensor_type;location;lat;lon;timestamp;pressure;altitude;pressure_sealevel;temperature;humidity
67377;BME280;54261;46.086;6.588;2022-11-22T00:04:21;90869.91;;;4.94;49.21
67377;BME280;54261;46.086;6.588;2022-11-22T00:09:23;90895.41;;;5.56;47.76
67377;BME280;54261;46.086;6.588;2022-11-22T00:14:25;90896.38;;;5.21;47.67
67377;BME280;54261;46.086;6.588;2022-11-22T00:19:27;90906.13;;;6.02;47.09
67377;BME280;54261;46.086;6.588;2022-11-22T00:24:29;90919.22;;;5.52;47.10
67377;BME280;54261;46.086;6.588;2022-11-22T00:29:31;90907.78;;;5.51;47.42
67377;BME280;54261;46.086;6.588;2022-11-22T00:34:33;90891.41;;;5.83;46.46
67377;BME280;54261;46.086;6.588;2022-11-22T00:39:35;90904.38;;;6.06;43.80
67377;BME280;54261;46.086;6.588;2022-11-22T00:44:37;90895.38;;;6.32;44.24
67377;BME280;54261;46.086;6.588;2022-11-22T00:49:39;90899.91;;;6.31;44.01
67377;BME280;54261;46.086;6.588;2022-11-22T00:54:41;90904.13;;;6.32;43.64
67377;BME280;54261;46.086;6.588;2022-11-22T00:59:43;90902.94;;;6.08;43.65
67377;BME280;54261;46.086;6.588;2022-11-22T01:04:45;90913.94;;;6.07;43.72
67377;BME280;54261;46.086;6.588;2022-11-22T01:09:47;90915.16;;;5.16;43.88
67377;BME280;54261;46.086;6.588;2022-11-22T01:14:50;90920.88;;;5.26;44.00
67377;BME280;54261;46.086;6.588;2022-11-22T01:19:52;90921.22;;;5.55;44.51
67377;BME280;54261;46.086;6.588;2022-11-22T01:24:53;90923.28;;;2.78;48.61
67377;BME280;54261;46.086;6.588;2022-11-22T01:29:55;90952.25;;;5.12;45.85
67377;BME280;54261;46.086;6.588;2022-11-22T01:34:57;90955.69;;;5.73;44.69
67377;BME280;54261;46.086;6.588;2022-11-22T01:39:59;90951.94;;;6.16;44.50
67377;BME280;54261;46.086;6.588;2022-11-22T01:50:35;90979.28;;;6.04;44.78
67377;BME280;54261;46.086;6.588;2022-11-22T01:55:39;90975.84;;;5.82;44.03
67377;BME280;54261;46.086;6.588;2022-11-22T02:00:42;90961.78;;;5.52;44.42
67377;BME280;54261;46.086;6.588;2022-11-22T02:05:45;90920.34;;;5.12;44.23
67377;BME280;54261;46.086;6.588;2022-11-22T02:10:51;90956.69;;;4.51;45.46
67377;BME280;54261;46.086;6.588;2022-11-22T02:15:54;90954.91;;;3.14;46.75
67377;BME280;54261;46.086;6.588;2022-11-22T02:20:56;90937.00;;;4.44;46.27
67377;BME280;54261;46.086;6.588;2022-11-22T02:26:01;90955.78;;;3.68;46.85
67377;BME280;54261;46.086;6.588;2022-11-22T02:31:03;90940.13;;;4.93;45.48
67377;BME280;54261;46.086;6.588;2022-11-22T02:36:05;90949.75;;;5.76;44.65
67377;BME280;54261;46.086;6.588;2022-11-22T02:41:11;90953.78;;;4.83;45.06
67377;BME280;54261;46.086;6.588;2022-11-22T02:46:14;90961.94;;;5.17;45.22
67377;BME280;54261;46.086;6.588;2022-11-22T02:51:21;90952.81;;;5.26;44.19
67377;BME280;54261;46.086;6.588;2022-11-22T02:56:23;90966.41;;;5.34;44.32
67377;BME280;54261;46.086;6.588;2022-11-22T03:01:25;90946.81;;;5.08;44.94
67377;BME280;54261;46.086;6.588;2022-11-22T03:06:27;90974.53;;;4.33;45.58
67377;BME280;54261;46.086;6.588;2022-11-22T03:11:29;90973.34;;;4.78;45.35
67377;BME280;54261;46.086;6.588;2022-11-22T03:16:31;90960.56;;;4.63;45.61
67377;BME280;54261;46.086;6.588;2022-11-22T03:21:33;90964.47;;;5.04;44.45
67377;BME280;54261;46.086;6.588;2022-11-22T03:26:36;90932.47;;;5.31;44.89
67377;BME280;54261;46.086;6.588;2022-11-22T03:31:38;90957.34;;;4.31;46.02
67377;BME280;54261;46.086;6.588;2022-11-22T03:36:40;90951.19;;;5.04;44.49
67377;BME280;54261;46.086;6.588;2022-11-22T03:41:42;90959.78;;;4.62;47.28
67377;BME280;54261;46.086;6.588;2022-11-22T03:46:44;90952.34;;;4.94;45.25
67377;BME280;54261;46.086;6.588;2022-11-22T03:51:46;90967.53;;;4.20;46.08
67377;BME280;54261;46.086;6.588;2022-11-22T03:56:48;90959.09;;;4.26;46.25
67377;BME280;54261;46.086;6.588;2022-11-22T04:01:50;90957.28;;;4.66;44.80
67377;BME280;54261;46.086;6.588;2022-11-22T04:06:52;90957.06;;;4.06;46.68
67377;BME280;54261;46.086;6.588;2022-11-22T04:11:54;90942.78;;;4.37;45.24
67377;BME280;54261;46.086;6.588;2022-11-22T04:16:56;90950.28;;;4.52;44.74
67377;BME280;54261;46.086;6.588;2022-11-22T04:21:58;90962.13;;;3.40;47.82
67377;BME280;54261;46.086;6.588;2022-11-22T04:27:00;90965.16;;;3.92;46.78
67377;BME280;54261;46.086;6.588;2022-11-22T04:32:02;90975.28;;;4.42;45.51
67377;BME280;54261;46.086;6.588;2022-11-22T04:37:22;90985.78;;;4.48;46.73
67377;BME280;54261;46.086;6.588;2022-11-22T04:42:24;90985.31;;;5.02;44.13
67377;BME280;54261;46.086;6.588;2022-11-22T04:47:45;90993.25;;;4.54;45.25
67377;BME280;54261;46.086;6.588;2022-11-22T04:53:02;90997.22;;;4.96;44.05
67377;BME280;54261;46.086;6.588;2022-11-22T04:58:04;91004.41;;;4.95;44.46
67377;BME280;54261;46.086;6.588;2022-11-22T05:03:07;91006.66;;;4.76;44.32
67377;BME280;54261;46.086;6.588;2022-11-22T05:08:10;91004.31;;;5.22;43.25
67377;BME280;54261;46.086;6.588;2022-11-22T05:13:12;91010.94;;;5.07;43.42
67377;BME280;54261;46.086;6.588;2022-11-22T05:18:14;91026.28;;;5.01;42.98
67377;BME280;54261;46.086;6.588;2022-11-22T05:23:17;91016.25;;;5.07;43.11
67377;BME280;54261;46.086;6.588;2022-11-22T05:28:38;91021.59;;;5.07;43.40
67377;BME280;54261;46.086;6.588;2022-11-22T05:33:42;91031.91;;;4.25;43.75
67377;BME280;54261;46.086;6.588;2022-11-22T05:38:45;91055.63;;;4.48;44.17
67377;BME280;54261;46.086;6.588;2022-11-22T05:43:47;91060.31;;;4.34;44.87
67377;BME280;54261;46.086;6.588;2022-11-22T05:48:49;91050.09;;;4.89;44.72
67377;BME280;54261;46.086;6.588;2022-11-22T05:53:51;91059.34;;;4.65;44.97
67377;BME280;54261;46.086;6.588;2022-11-22T05:58:53;91062.63;;;4.79;44.84
67377;BME280;54261;46.086;6.588;2022-11-22T06:03:55;91088.13;;;5.54;44.54
67377;BME280;54261;46.086;6.588;2022-11-22T06:08:58;91053.03;;;5.52;44.12
67377;BME280;54261;46.086;6.588;2022-11-22T06:14:00;91093.06;;;5.95;43.96
67377;BME280;54261;46.086;6.588;2022-11-22T06:19:06;91091.50;;;6.03;43.56
67377;BME280;54261;46.086;6.588;2022-11-22T06:24:08;91090.66;;;5.81;43.77
67377;BME280;54261;46.086;6.588;2022-11-22T06:29:10;91082.50;;;5.38;44.23
67377;BME280;54261;46.086;6.588;2022-11-22T06:34:12;91081.56;;;5.82;44.11
67377;BME280;54261;46.086;6.588;2022-11-22T06:39:14;91052.66;;;5.24;43.23
67377;BME280;54261;46.086;6.588;2022-11-22T06:44:16;91078.75;;;5.78;44.19
67377;BME280;54261;46.086;6.588;2022-11-22T06:49:18;91101.50;;;5.67;43.46
67377;BME280;54261;46.086;6.588;2022-11-22T06:54:26;91084.59;;;5.24;43.23
67377;BME280;54261;46.086;6.588;2022-11-22T06:59:28;91111.03;;;5.77;42.78
67377;BME280;54261;46.086;6.588;2022-11-22T07:04:31;91098.09;;;5.96;42.94
67377;BME280;54261;46.086;6.588;2022-11-22T07:09:33;91111.06;;;5.11;44.51
67377;BME280;54261;46.086;6.588;2022-11-22T07:14:36;91073.34;;;5.18;44.19
67377;BME280;54261;46.086;6.588;2022-11-22T07:19:38;91124.56;;;5.63;44.03
67377;BME280;54261;46.086;6.588;2022-11-22T07:24:40;91085.81;;;5.35;43.62
67377;BME280;54261;46.086;6.588;2022-11-22T07:29:42;91123.00;;;5.62;44.20
67377;BME280;54261;46.086;6.588;2022-11-22T07:34:44;91116.06;;;5.69;43.30
67377;BME280;54261;46.086;6.588;2022-11-22T07:39:46;91128.34;;;5.53;43.84
67377;BME280;54261;46.086;6.588;2022-11-22T07:44:48;91130.13;;;6.09;43.25
67377;BME280;54261;46.086;6.588;2022-11-22T07:49:50;91132.41;;;5.50;43.73
67377;BME280;54261;46.086;6.588;2022-11-22T07:54:52;91127.78;;;5.12;45.69
67377;BME280;54261;46.086;6.588;2022-11-22T07:59:54;91141.84;;;5.48;44.82
67377;BME280;54261;46.086;6.588;2022-11-22T08:04:56;91145.94;;;5.01;44.41
67377;BME280;54261;46.086;6.588;2022-11-22T08:09:58;91164.16;;;5.64;45.40
67377;BME280;54261;46.086;6.588;2022-11-22T08:15:00;91155.19;;;5.78;45.36
67377;BME280;54261;46.086;6.588;2022-11-22T08:20:02;91154.47;;;5.99;44.00
67377;BME280;54261;46.086;6.588;2022-11-22T08:25:05;91167.59;;;6.64;44.26
67377;BME280;54261;46.086;6.588;2022-11-22T08:30:13;91182.88;;;4.85;46.92
67377;BME280;54261;46.086;6.588;2022-11-22T08:35:15;91188.88;;;3.75;50.03
67377;BME280;54261;46.086;6.588;2022-11-22T08:40:17;91216.69;;;1.65;56.51
67377;BME280;54261;46.086;6.588;2022-11-22T08:45:19;91207.59;;;4.77;51.12
67377;BME280;54261;46.086;6.588;2022-11-22T08:50:21;91196.47;;;5.45;48.70
67377;BME280;54261;46.086;6.588;2022-11-22T08:55:23;91202.88;;;6.01;47.32
67377;BME280;54261;46.086;6.588;2022-11-22T09:00:25;91219.84;;;6.26;45.48
67377;BME280;54261;46.086;6.588;2022-11-22T09:05:33;91223.75;;;6.89;45.02
67377;BME280;54261;46.086;6.588;2022-11-22T09:10:36;91203.16;;;6.98;44.57
67377;BME280;54261;46.086;6.588;2022-11-22T09:15:38;91209.13;;;7.50;44.45
67377;BME280;54261;46.086;6.588;2022-11-22T09:20:40;91221.00;;;7.74;43.63
67377;BME280;54261;46.086;6.588;2022-11-22T09:25:43;91226.22;;;8.16;43.28
67377;BME280;54261;46.086;6.588;2022-11-22T09:30:45;91208.75;;;8.06;43.77
67377;BME280;54261;46.086;6.588;2022-11-22T09:35:47;91219.22;;;8.36;43.57
67377;BME280;54261;46.086;6.588;2022-11-22T09:40:48;91221.66;;;8.67;43.55
67377;BME280;54261;46.086;6.588;2022-11-22T09:51:07;91242.69;;;2.33;54.79
67377;BME280;54261;46.086;6.588;2022-11-22T09:56:13;91247.59;;;2.54;59.10
67377;BME280;54261;46.086;6.588;2022-11-22T10:01:21;91251.19;;;-1.01;66.90
67377;BME280;54261;46.086;6.588;2022-11-22T10:06:33;91247.91;;;2.10;61.88
67377;BME280;54261;46.086;6.588;2022-11-22T10:16:52;91244.97;;;2.91;58.49
67377;BME280;54261;46.086;6.588;2022-11-22T10:21:56;91249.22;;;0.42;63.73
67377;BME280;54261;46.086;6.588;2022-11-22T10:26:58;91232.22;;;2.00;57.26
67377;BME280;54261;46.086;6.588;2022-11-22T10:42:50;91243.72;;;1.48;60.70
67377;BME280;54261;46.086;6.588;2022-11-22T10:58:37;91208.19;;;1.68;57.79
67377;BME280;54261;46.086;6.588;2022-11-22T11:03:43;91197.94;;;2.96;54.78
67377;BME280;54261;46.086;6.588;2022-11-22T11:08:54;91210.41;;;4.89;51.54
67377;BME280;54261;46.086;6.588;2022-11-22T11:14:25;91213.06;;;5.16;47.88
67377;BME280;54261;46.086;6.588;2022-11-22T11:19:32;91207.13;;;6.62;48.29
67377;BME280;54261;46.086;6.588;2022-11-22T11:24:39;91224.91;;;6.49;45.82
67377;BME280;54261;46.086;6.588;2022-11-22T11:29:47;91214.78;;;7.15;46.63
67377;BME280;54261;46.086;6.588;2022-11-22T11:34:56;91206.09;;;8.31;45.51
67377;BME280;54261;46.086;6.588;2022-11-22T11:39:59;91185.28;;;7.78;44.29
67377;BME280;54261;46.086;6.588;2022-11-22T11:45:25;90953.78;;;4.09;48.13
67377;BME280;54261;46.086;6.588;2022-11-22T11:50:28;91121.38;;;5.13;48.13
67377;BME280;54261;46.086;6.588;2022-11-22T11:55:34;91188.25;;;6.67;47.11
67377;BME280;54261;46.086;6.588;2022-11-22T12:00:38;91178.13;;;5.61;45.89
67377;BME280;54261;46.086;6.588;2022-11-22T12:05:41;91176.53;;;5.60;48.21
67377;BME280;54261;46.086;6.588;2022-11-22T12:10:48;91160.19;;;4.88;49.86
67377;BME280;54261;46.086;6.588;2022-11-22T12:16:07;91167.34;;;7.20;47.09
67377;BME280;54261;46.086;6.588;2022-11-22T12:26:40;91149.88;;;7.69;43.66
67377;BME280;54261;46.086;6.588;2022-11-22T12:31:54;91162.06;;;6.69;45.78
67377;BME280;54261;46.086;6.588;2022-11-22T12:37:06;91169.44;;;7.15;43.93
67377;BME280;54261;46.086;6.588;2022-11-22T12:43:19;91156.53;;;8.34;43.09
67377;BME280;54261;46.086;6.588;2022-11-22T12:47:56;91143.47;;;9.11;41.32
67377;BME280;54261;46.086;6.588;2022-11-22T12:53:09;91143.25;;;6.44;45.16
67377;BME280;54261;46.086;6.588;2022-11-22T13:09:05;91135.31;;;2.27;56.21
67377;BME280;54261;46.086;6.588;2022-11-22T13:14:31;91150.97;;;4.41;53.47
67377;BME280;54261;46.086;6.588;2022-11-22T13:25:05;91168.94;;;0.81;59.50
67377;BME280;54261;46.086;6.588;2022-11-22T13:30:24;91167.06;;;3.55;56.17
67377;BME280;54261;46.086;6.588;2022-11-22T13:35:34;91171.00;;;3.57;55.35
67377;BME280;54261;46.086;6.588;2022-11-22T13:40:43;91146.50;;;5.42;49.63
67377;BME280;54261;46.086;6.588;2022-11-22T13:45:56;91169.06;;;5.36;48.04
67377;BME280;54261;46.086;6.588;2022-11-22T13:51:00;91181.00;;;4.77;50.96
67377;BME280;54261;46.086;6.588;2022-11-22T14:06:35;91145.03;;;4.79;46.91
67377;BME280;54261;46.086;6.588;2022-11-22T14:12:05;91173.50;;;4.88;47.92
67377;BME280;54261;46.086;6.588;2022-11-22T14:17:09;91177.41;;;3.65;51.30
67377;BME280;54261;46.086;6.588;2022-11-22T14:22:25;91177.63;;;4.18;51.89
67377;BME280;54261;46.086;6.588;2022-11-22T14:27:44;91192.13;;;5.79;47.04
67377;BME280;54261;46.086;6.588;2022-11-22T14:32:57;91187.84;;;7.41;44.43
67377;BME280;54261;46.086;6.588;2022-11-22T14:43:15;91209.22;;;3.88;50.18
67377;BME280;54261;46.086;6.588;2022-11-22T14:48:23;91198.03;;;5.02;49.62
67377;BME280;54261;46.086;6.588;2022-11-22T14:53:42;91200.66;;;6.42;47.83
67377;BME280;54261;46.086;6.588;2022-11-22T15:20:41;91194.53;;;7.81;41.75
67377;BME280;54261;46.086;6.588;2022-11-22T15:26:04;91199.50;;;8.16;41.43
67377;BME280;54261;46.086;6.588;2022-11-22T15:31:31;91211.31;;;8.15;41.44
67377;BME280;54261;46.086;6.588;2022-11-22T15:37:03;91143.03;;;7.93;41.17
67377;BME280;54261;46.086;6.588;2022-11-22T15:42:30;91177.81;;;8.30;41.15
67377;BME280;54261;46.086;6.588;2022-11-22T15:47:58;91202.94;;;8.04;41.19
67377;BME280;54261;46.086;6.588;2022-11-22T15:53:24;91199.06;;;8.14;39.87
67377;BME280;54261;46.086;6.588;2022-11-22T15:58:48;91212.41;;;8.14;40.01
67377;BME280;54261;46.086;6.588;2022-11-22T16:03:53;91222.66;;;8.00;39.57
67377;BME280;54261;46.086;6.588;2022-11-22T16:08:58;91228.13;;;8.16;39.46
67377;BME280;54261;46.086;6.588;2022-11-22T16:14:02;91244.88;;;7.36;40.85
67377;BME280;54261;46.086;6.588;2022-11-22T16:19:23;91246.84;;;7.82;40.95
67377;BME280;54261;46.086;6.588;2022-11-22T16:24:30;91251.81;;;8.05;39.84
67377;BME280;54261;46.086;6.588;2022-11-22T16:29:34;91248.19;;;7.88;39.67
67377;BME280;54261;46.086;6.588;2022-11-22T16:34:38;91257.25;;;6.99;42.37
67377;BME280;54261;46.086;6.588;2022-11-22T16:39:43;91256.28;;;7.03;41.12
67377;BME280;54261;46.086;6.588;2022-11-22T16:44:46;91243.34;;;7.69;41.34
67377;BME280;54261;46.086;6.588;2022-11-22T16:49:48;91247.50;;;7.45;41.00
67377;BME280;54261;46.086;6.588;2022-11-22T16:54:50;91247.31;;;6.87;42.17
67377;BME280;54261;46.086;6.588;2022-11-22T16:59:52;91256.03;;;7.17;41.77
67377;BME280;54261;46.086;6.588;2022-11-22T17:04:55;91258.94;;;7.46;40.76
67377;BME280;54261;46.086;6.588;2022-11-22T17:09:57;91267.19;;;7.19;40.53
67377;BME280;54261;46.086;6.588;2022-11-22T17:14:59;91270.88;;;7.06;40.82
67377;BME280;54261;46.086;6.588;2022-11-22T17:20:01;91196.22;;;6.76;40.76
67377;BME280;54261;46.086;6.588;2022-11-22T17:25:08;91268.38;;;7.43;40.78
67377;BME280;54261;46.086;6.588;2022-11-22T17:30:12;91258.31;;;7.28;41.19
67377;BME280;54261;46.086;6.588;2022-11-22T17:35:14;91269.56;;;7.33;41.33
67377;BME280;54261;46.086;6.588;2022-11-22T17:40:17;91273.09;;;7.25;41.76
67377;BME280;54261;46.086;6.588;2022-11-22T17:45:19;91281.50;;;7.15;41.58
67377;BME280;54261;46.086;6.588;2022-11-22T17:50:22;91267.09;;;7.07;41.66
67377;BME280;54261;46.086;6.588;2022-11-22T17:55:24;91234.69;;;6.96;41.19
67377;BME280;54261;46.086;6.588;2022-11-22T18:00:43;91276.47;;;7.13;41.30
67377;BME280;54261;46.086;6.588;2022-11-22T18:05:45;91240.50;;;7.19;40.77
67377;BME280;54261;46.086;6.588;2022-11-22T18:10:51;91269.94;;;6.42;42.63
67377;BME280;54261;46.086;6.588;2022-11-22T18:15:54;91269.59;;;6.52;42.25
67377;BME280;54261;46.086;6.588;2022-11-22T18:21:04;91269.00;;;6.46;42.01
67377;BME280;54261;46.086;6.588;2022-11-22T18:26:15;91266.44;;;6.89;41.05
67377;BME280;54261;46.086;6.588;2022-11-22T18:31:37;91213.78;;;6.17;41.51
67377;BME280;54261;46.086;6.588;2022-11-22T18:36:52;91254.31;;;5.83;43.03
67377;BME280;54261;46.086;6.588;2022-11-22T18:42:02;91293.81;;;6.77;41.74
67377;BME280;54261;46.086;6.588;2022-11-22T18:47:04;91305.44;;;7.02;41.21
67377;BME280;54261;46.086;6.588;2022-11-22T18:52:07;91311.63;;;7.36;40.87
67377;BME280;54261;46.086;6.588;2022-11-22T18:57:14;91314.47;;;6.41;41.26
67377;BME280;54261;46.086;6.588;2022-11-22T19:02:16;91288.53;;;3.90;46.78
67377;BME280;54261;46.086;6.588;2022-11-22T19:07:19;91326.84;;;5.27;45.35
67377;BME280;54261;46.086;6.588;2022-11-22T19:12:22;91330.84;;;6.13;43.54
67377;BME280;54261;46.086;6.588;2022-11-22T19:17:32;91325.53;;;6.61;43.32
67377;BME280;54261;46.086;6.588;2022-11-22T19:22:34;91297.16;;;6.17;42.90
67377;BME280;54261;46.086;6.588;2022-11-22T19:27:36;91343.03;;;6.71;43.36
67377;BME280;54261;46.086;6.588;2022-11-22T19:32:38;91328.19;;;7.00;42.23
67377;BME280;54261;46.086;6.588;2022-11-22T19:37:40;91327.03;;;7.31;41.77
67377;BME280;54261;46.086;6.588;2022-11-22T19:42:42;91338.81;;;7.08;41.14
67377;BME280;54261;46.086;6.588;2022-11-22T19:47:44;91345.78;;;7.22;41.29
67377;BME280;54261;46.086;6.588;2022-11-22T19:52:46;91305.44;;;6.63;41.44
67377;BME280;54261;46.086;6.588;2022-11-22T19:57:48;91321.81;;;7.13;41.31
67377;BME280;54261;46.086;6.588;2022-11-22T20:02:50;91328.41;;;5.64;43.81
67377;BME280;54261;46.086;6.588;2022-11-22T20:07:52;91319.16;;;5.35;44.58
67377;BME280;54261;46.086;6.588;2022-11-22T20:12:55;91320.09;;;6.48;41.95
67377;BME280;54261;46.086;6.588;2022-11-22T20:17:57;91318.78;;;6.16;42.39
67377;BME280;54261;46.086;6.588;2022-11-22T20:22:59;91330.72;;;5.39;44.40
67377;BME280;54261;46.086;6.588;2022-11-22T20:28:01;91313.50;;;5.98;43.70
67377;BME280;54261;46.086;6.588;2022-11-22T20:33:03;91292.19;;;4.92;44.45
67377;BME280;54261;46.086;6.588;2022-11-22T20:38:05;91298.78;;;5.30;44.46
67377;BME280;54261;46.086;6.588;2022-11-22T20:43:07;91264.53;;;4.93;44.61
67377;BME280;54261;46.086;6.588;2022-11-22T20:48:09;91332.63;;;5.65;44.26
67377;BME280;54261;46.086;6.588;2022-11-22T20:53:11;91280.34;;;5.43;43.19
67377;BME280;54261;46.086;6.588;2022-11-22T20:58:13;91327.59;;;5.37;45.04
67377;BME280;54261;46.086;6.588;2022-11-22T21:03:15;91339.22;;;5.76;43.75
67377;BME280;54261;46.086;6.588;2022-11-22T21:08:18;91330.88;;;5.43;43.70
67377;BME280;54261;46.086;6.588;2022-11-22T21:13:20;91353.59;;;5.84;43.50
67377;BME280;54261;46.086;6.588;2022-11-22T21:18:22;91357.59;;;5.02;45.79
67377;BME280;54261;46.086;6.588;2022-11-22T21:23:26;91345.28;;;5.33;44.34
67377;BME280;54261;46.086;6.588;2022-11-22T21:28:28;91319.31;;;5.21;44.65
67377;BME280;54261;46.086;6.588;2022-11-22T21:33:31;91358.56;;;5.15;44.75
67377;BME280;54261;46.086;6.588;2022-11-22T21:38:34;91348.59;;;5.38;44.48
67377;BME280;54261;46.086;6.588;2022-11-22T21:43:36;91314.13;;;4.98;43.99
67377;BME280;54261;46.086;6.588;2022-11-22T21:48:38;91270.00;;;4.30;44.96
67377;BME280;54261;46.086;6.588;2022-11-22T21:53:40;91324.91;;;4.44;45.01
67377;BME280;54261;46.086;6.588;2022-11-22T21:58:42;91315.38;;;5.18;44.64
67377;BME280;54261;46.086;6.588;2022-11-22T22:03:44;91314.13;;;5.16;44.37
67377;BME280;54261;46.086;6.588;2022-11-22T22:08:47;91325.47;;;5.57;44.10
67377;BME280;54261;46.086;6.588;2022-11-22T22:13:51;91302.88;;;5.63;43.57
67377;BME280;54261;46.086;6.588;2022-11-22T22:18:53;91296.81;;;5.62;42.74
67377;BME280;54261;46.086;6.588;2022-11-22T22:23:55;91297.56;;;5.27;43.38
67377;BME280;54261;46.086;6.588;2022-11-22T22:28:57;91318.19;;;5.13;43.93
67377;BME280;54261;46.086;6.588;2022-11-22T22:33:59;91316.31;;;5.22;43.00
67377;BME280;54261;46.086;6.588;2022-11-22T22:39:01;91294.00;;;4.16;43.52
67377;BME280;54261;46.086;6.588;2022-11-22T22:44:04;91294.56;;;4.94;43.01
67377;BME280;54261;46.086;6.588;2022-11-22T22:49:06;91297.69;;;5.13;42.78
67377;BME280;54261;46.086;6.588;2022-11-22T22:54:09;91308.97;;;5.10;42.52
67377;BME280;54261;46.086;6.588;2022-11-22T22:59:11;91314.34;;;4.61;42.89
67377;BME280;54261;46.086;6.588;2022-11-22T23:04:13;91282.25;;;4.40;42.77
67377;BME280;54261;46.086;6.588;2022-11-22T23:09:15;91325.78;;;4.79;42.41
67377;BME280;54261;46.086;6.588;2022-11-22T23:14:20;91319.63;;;4.52;42.53
67377;BME280;54261;46.086;6.588;2022-11-22T23:19:23;91316.03;;;4.57;42.95
67377;BME280;54261;46.086;6.588;2022-11-22T23:24:28;91322.78;;;4.63;42.17
67377;BME280;54261;46.086;6.588;2022-11-22T23:29:31;91297.19;;;4.36;43.06
67377;BME280;54261;46.086;6.588;2022-11-22T23:34:34;91273.19;;;3.78;42.95
67377;BME280;54261;46.086;6.588;2022-11-22T23:39:36;91293.44;;;4.28;42.04
67377;BME280;54261;46.086;6.588;2022-11-22T23:44:38;91236.16;;;2.44;45.09
67377;BME280;54261;46.086;6.588;2022-11-22T23:49:40;91292.28;;;3.20;45.58
67377;BME280;54261;46.086;6.588;2022-11-22T23:54:42;91301.22;;;3.47;44.12
67377;BME280;54261;46.086;6.588;2022-11-22T23:59:44;91290.91;;;3.23;44.38
